sensor_id;sensor_type;location;lat;lon;timestamp;P1;durP1;ratioP1;P2;durP2;ratioP2
31091;SDS011;67728;53.122;12.776;2023-02-28T00:00:49;164.13;;;42.10;;
31091;SDS011;67728;53.122;12.776;2023-02-28T00:02:21;169.57;;;42.87;;
31091;SDS011;67728;53.122;12.776;2023-02-28T00:03:52;174.97;;;43.40;;
31091;SDS011;67728;53.122;12.776;2023-02-28T00:05:24;154.73;;;40.97;;
31091;SDS011;67728;53.122;12.776;2023-02-28T00:06:57;149.40;;;40.83;;
31091;SDS011;67728;53.122;12.776;2023-02-28T00:08:29;148.07;;;40.67;;
31091;SDS011;67728;53.122;12.776;2023-02-28T00:10:01;144.43;;;40.20;;
31091;SDS011;67728;53.122;12.776;2023-02-28T00:11:33;145.70;;;40.50;;
31091;SDS011;67728;53.122;12.776;2023-02-28T00:13:07;137.57;;;39.60;;
31091;SDS011;67728;53.122;12.776;2023-02-28T00:14:38;132.43;;;39.03;;
31091;SDS011;67728;53.122;12.776;2023-02-28T00:16:12;134.70;;;39.40;;
31091;SDS011;67728;53.122;12.776;2023-02-28T00:17:46;123.40;;;37.90;;
31091;SDS011;67728;53.122;12.776;2023-02-28T00:19:17;121.87;;;37.57;;
31091;SDS011;67728;53.122;12.776;2023-02-28T00:20:48;124.53;;;38.03;;
31091;SDS011;67728;53.122;12.776;2023-02-28T00:22:20;128.40;;;38.87;;
31091;SDS011;67728;53.122;12.776;2023-02-28T00:23:53;133.03;;;38.90;;
31091;SDS011;67728;53.122;12.776;2023-02-28T00:25:24;131.63;;;38.93;;
31091;SDS011;67728;53.122;12.776;2023-02-28T00:26:55;133.13;;;38.80;;
31091;SDS011;67728;53.122;12.776;2023-02-28T00:28:27;133.97;;;38.97;;
31091;SDS011;67728;53.122;12.776;2023-02-28T00:29:59;135.50;;;39.30;;
31091;SDS011;67728;53.122;12.776;2023-02-28T00:31:31;142.07;;;39.83;;
31091;SDS011;67728;53.122;12.776;2023-02-28T00:33:02;138.20;;;39.43;;
31091;SDS011;67728;53.122;12.776;2023-02-28T00:34:33;142.33;;;39.93;;
31091;SDS011;67728;53.122;12.776;2023-02-28T00:36:08;143.90;;;39.73;;
31091;SDS011;67728;53.122;12.776;2023-02-28T00:37:42;141.40;;;39.77;;
31091;SDS011;67728;53.122;12.776;2023-02-28T00:39:12;142.13;;;39.67;;
31091;SDS011;67728;53.122;12.776;2023-02-28T00:40:44;143.87;;;40.07;;
31091;SDS011;67728;53.122;12.776;2023-02-28T00:42:16;140.30;;;39.53;;
31091;SDS011;67728;53.122;12.776;2023-02-28T00:43:47;143.77;;;39.97;;
31091;SDS011;67728;53.122;12.776;2023-02-28T00:45:19;149.93;;;40.47;;
31091;SDS011;67728;53.122;12.776;2023-02-28T00:46:52;159.23;;;41.30;;
31091;SDS011;67728;53.122;12.776;2023-02-28T00:48:24;163.30;;;42.00;;
31091;SDS011;67728;53.122;12.776;2023-02-28T00:49:55;155.00;;;41.00;;
31091;SDS011;67728;53.122;12.776;2023-02-28T00:51:27;145.13;;;40.03;;
31091;SDS011;67728;53.122;12.776;2023-02-28T00:52:58;143.53;;;40.00;;
31091;SDS011;67728;53.122;12.776;2023-02-28T00:54:29;137.60;;;39.23;;
31091;SDS011;67728;53.122;12.776;2023-02-28T00:56:01;144.37;;;40.03;;
31091;SDS011;67728;53.122;12.776;2023-02-28T00:57:32;152.37;;;40.67;;
31091;SDS011;67728;53.122;12.776;2023-02-28T00:59:03;151.07;;;40.73;;
31091;SDS011;67728;53.122;12.776;2023-02-28T01:00:35;162.90;;;41.57;;
31091;SDS011;67728;53.122;12.776;2023-02-28T01:02:08;155.33;;;41.20;;
31091;SDS011;67728;53.122;12.776;2023-02-28T01:03:39;157.63;;;41.40;;
31091;SDS011;67728;53.122;12.776;2023-02-28T01:05:12;154.43;;;41.30;;
31091;SDS011;67728;53.122;12.776;2023-02-28T01:06:43;154.53;;;41.37;;
31091;SDS011;67728;53.122;12.776;2023-02-28T01:08:17;149.23;;;40.40;;
31091;SDS011;67728;53.122;12.776;2023-02-28T01:09:48;159.43;;;41.53;;
31091;SDS011;67728;53.122;12.776;2023-02-28T01:11:20;161.83;;;42.07;;
31091;SDS011;67728;53.122;12.776;2023-02-28T01:12:52;157.43;;;41.73;;
31091;SDS011;67728;53.122;12.776;2023-02-28T01:14:23;145.67;;;40.53;;
31091;SDS011;67728;53.122;12.776;2023-02-28T01:15:55;145.07;;;40.63;;
31091;SDS011;67728;53.122;12.776;2023-02-28T01:17:27;136.20;;;39.30;;
31091;SDS011;67728;53.122;12.776;2023-02-28T01:18:59;130.43;;;38.70;;
31091;SDS011;67728;53.122;12.776;2023-02-28T01:20:30;132.13;;;38.73;;
31091;SDS011;67728;53.122;12.776;2023-02-28T01:22:02;125.43;;;38.27;;
31091;SDS011;67728;53.122;12.776;2023-02-28T01:23:34;121.47;;;37.63;;
31091;SDS011;67728;53.122;12.776;2023-02-28T01:25:06;121.27;;;37.63;;
31091;SDS011;67728;53.122;12.776;2023-02-28T01:26:38;137.20;;;39.40;;
31091;SDS011;67728;53.122;12.776;2023-02-28T01:28:10;135.63;;;39.03;;
31091;SDS011;67728;53.122;12.776;2023-02-28T01:29:42;138.07;;;39.10;;
31091;SDS011;67728;53.122;12.776;2023-02-28T01:31:14;138.53;;;39.23;;
31091;SDS011;67728;53.122;12.776;2023-02-28T01:32:47;138.43;;;39.20;;
31091;SDS011;67728;53.122;12.776;2023-02-28T01:34:17;139.43;;;39.23;;
31091;SDS011;67728;53.122;12.776;2023-02-28T01:35:56;133.90;;;38.70;;
31091;SDS011;67728;53.122;12.776;2023-02-28T01:37:27;127.23;;;37.80;;
31091;SDS011;67728;53.122;12.776;2023-02-28T01:38:59;132.20;;;38.67;;
31091;SDS011;67728;53.122;12.776;2023-02-28T01:40:31;136.43;;;39.10;;
31091;SDS011;67728;53.122;12.776;2023-02-28T01:42:01;133.27;;;38.97;;
31091;SDS011;67728;53.122;12.776;2023-02-28T01:43:51;133.37;;;38.77;;
31091;SDS011;67728;53.122;12.776;2023-02-28T01:45:29;124.33;;;37.33;;
31091;SDS011;67728;53.122;12.776;2023-02-28T01:47:02;132.20;;;38.50;;
31091;SDS011;67728;53.122;12.776;2023-02-28T01:48:35;134.20;;;38.50;;
31091;SDS011;67728;53.122;12.776;2023-02-28T01:50:11;128.23;;;38.10;;
31091;SDS011;67728;53.122;12.776;2023-02-28T01:51:46;117.57;;;36.97;;
31091;SDS011;67728;53.122;12.776;2023-02-28T01:53:21;118.40;;;36.87;;
31091;SDS011;67728;53.122;12.776;2023-02-28T01:54:58;115.67;;;36.37;;
31091;SDS011;67728;53.122;12.776;2023-02-28T01:56:33;113.00;;;36.10;;
31091;SDS011;67728;53.122;12.776;2023-02-28T01:58:06;114.07;;;36.40;;
31091;SDS011;67728;53.122;12.776;2023-02-28T01:59:41;121.80;;;37.27;;
31091;SDS011;67728;53.122;12.776;2023-02-28T02:01:15;120.40;;;37.17;;
31091;SDS011;67728;53.122;12.776;2023-02-28T02:02:52;114.07;;;36.57;;
31091;SDS011;67728;53.122;12.776;2023-02-28T02:04:31;125.73;;;37.57;;
31091;SDS011;67728;53.122;12.776;2023-02-28T02:06:08;123.13;;;37.50;;
31091;SDS011;67728;53.122;12.776;2023-02-28T02:07:40;117.17;;;36.77;;
31091;SDS011;67728;53.122;12.776;2023-02-28T02:09:14;120.00;;;37.10;;
31091;SDS011;67728;53.122;12.776;2023-02-28T02:10:46;118.27;;;36.90;;
31091;SDS011;67728;53.122;12.776;2023-02-28T02:12:24;120.50;;;37.33;;
31091;SDS011;67728;53.122;12.776;2023-02-28T02:14:24;111.90;;;36.27;;
31091;SDS011;67728;53.122;12.776;2023-02-28T02:16:16;109.30;;;35.77;;
31091;SDS011;67728;53.122;12.776;2023-02-28T02:18:00;114.43;;;36.33;;
31091;SDS011;67728;53.122;12.776;2023-02-28T02:20:05;112.43;;;36.07;;
31091;SDS011;67728;53.122;12.776;2023-02-28T02:22:06;103.07;;;34.70;;
31091;SDS011;67728;53.122;12.776;2023-02-28T02:26:03;99.10;;;34.23;;
31091;SDS011;67728;53.122;12.776;2023-02-28T02:28:11;99.70;;;34.40;;
31091;SDS011;67728;53.122;12.776;2023-02-28T02:32:16;101.80;;;34.30;;
31091;SDS011;67728;53.122;12.776;2023-02-28T02:36:11;97.60;;;33.80;;
31091;SDS011;67728;53.122;12.776;2023-02-28T02:37:47;98.17;;;34.17;;
31091;SDS011;67728;53.122;12.776;2023-02-28T02:39:25;98.17;;;34.10;;
31091;SDS011;67728;53.122;12.776;2023-02-28T02:41:04;91.60;;;33.20;;
31091;SDS011;67728;53.122;12.776;2023-02-28T02:42:45;96.63;;;34.17;;
31091;SDS011;67728;53.122;12.776;2023-02-28T02:44:22;93.83;;;33.67;;
31091;SDS011;67728;53.122;12.776;2023-02-28T02:45:59;95.90;;;33.97;;
31091;SDS011;67728;53.122;12.776;2023-02-28T02:47:36;91.97;;;33.33;;
31091;SDS011;67728;53.122;12.776;2023-02-28T02:49:11;95.17;;;33.90;;
31091;SDS011;67728;53.122;12.776;2023-02-28T02:50:48;91.60;;;33.47;;
31091;SDS011;67728;53.122;12.776;2023-02-28T02:52:23;94.87;;;34.23;;
31091;SDS011;67728;53.122;12.776;2023-02-28T02:54:02;92.90;;;33.87;;
31091;SDS011;67728;53.122;12.776;2023-02-28T02:55:38;90.23;;;33.10;;
31091;SDS011;67728;53.122;12.776;2023-02-28T02:57:15;95.10;;;33.77;;
31091;SDS011;67728;53.122;12.776;2023-02-28T02:58:53;93.47;;;33.30;;
31091;SDS011;67728;53.122;12.776;2023-02-28T03:00:30;98.33;;;33.80;;
31091;SDS011;67728;53.122;12.776;2023-02-28T03:02:06;94.53;;;33.60;;
31091;SDS011;67728;53.122;12.776;2023-02-28T03:03:42;92.47;;;33.27;;
31091;SDS011;67728;53.122;12.776;2023-02-28T03:05:17;95.23;;;33.63;;
31091;SDS011;67728;53.122;12.776;2023-02-28T03:06:53;95.20;;;33.70;;
31091;SDS011;67728;53.122;12.776;2023-02-28T03:08:25;95.87;;;34.07;;
31091;SDS011;67728;53.122;12.776;2023-02-28T03:09:57;98.67;;;34.23;;
31091;SDS011;67728;53.122;12.776;2023-02-28T03:11:29;103.57;;;34.70;;
31091;SDS011;67728;53.122;12.776;2023-02-28T03:15:12;100.37;;;34.20;;
31091;SDS011;67728;53.122;12.776;2023-02-28T03:17:00;97.88;;;33.92;;
31091;SDS011;67728;53.122;12.776;2023-02-28T03:18:44;94.57;;;33.50;;
31091;SDS011;67728;53.122;12.776;2023-02-28T03:20:27;96.30;;;33.90;;
31091;SDS011;67728;53.122;12.776;2023-02-28T03:22:17;100.10;;;34.27;;
31091;SDS011;67728;53.122;12.776;2023-02-28T03:24:02;94.70;;;33.43;;
31091;SDS011;67728;53.122;12.776;2023-02-28T03:25:37;94.73;;;33.73;;
31091;SDS011;67728;53.122;12.776;2023-02-28T03:27:17;95.03;;;33.97;;
31091;SDS011;67728;53.122;12.776;2023-02-28T03:28:56;101.97;;;34.60;;
31091;SDS011;67728;53.122;12.776;2023-02-28T03:30:37;95.07;;;33.67;;
31091;SDS011;67728;53.122;12.776;2023-02-28T03:32:14;94.63;;;33.63;;
31091;SDS011;67728;53.122;12.776;2023-02-28T03:33:54;92.83;;;33.50;;
31091;SDS011;67728;53.122;12.776;2023-02-28T03:35:31;91.10;;;33.20;;
31091;SDS011;67728;53.122;12.776;2023-02-28T03:37:07;93.33;;;33.53;;
31091;SDS011;67728;53.122;12.776;2023-02-28T03:38:47;82.97;;;31.97;;
31091;SDS011;67728;53.122;12.776;2023-02-28T03:40:23;86.50;;;32.60;;
31091;SDS011;67728;53.122;12.776;2023-02-28T03:41:59;89.43;;;33.03;;
31091;SDS011;67728;53.122;12.776;2023-02-28T03:43:34;99.60;;;34.70;;
31091;SDS011;67728;53.122;12.776;2023-02-28T03:45:10;88.53;;;32.87;;
31091;SDS011;67728;53.122;12.776;2023-02-28T03:46:46;92.03;;;33.40;;
31091;SDS011;67728;53.122;12.776;2023-02-28T03:48:23;86.43;;;32.43;;
31091;SDS011;67728;53.122;12.776;2023-02-28T03:49:59;95.43;;;33.90;;
31091;SDS011;67728;53.122;12.776;2023-02-28T03:51:37;95.43;;;33.70;;
31091;SDS011;67728;53.122;12.776;2023-02-28T03:53:11;98.53;;;33.90;;
31091;SDS011;67728;53.122;12.776;2023-02-28T03:54:47;104.50;;;34.90;;
31091;SDS011;67728;53.122;12.776;2023-02-28T03:56:24;98.90;;;34.07;;
31091;SDS011;67728;53.122;12.776;2023-02-28T03:58:03;103.07;;;34.57;;
31091;SDS011;67728;53.122;12.776;2023-02-28T03:59:42;107.93;;;35.43;;
31091;SDS011;67728;53.122;12.776;2023-02-28T04:01:17;102.57;;;34.60;;
31091;SDS011;67728;53.122;12.776;2023-02-28T04:02:52;102.60;;;34.70;;
31091;SDS011;67728;53.122;12.776;2023-02-28T04:04:24;101.63;;;34.87;;
31091;SDS011;67728;53.122;12.776;2023-02-28T04:05:56;101.43;;;34.83;;
31091;SDS011;67728;53.122;12.776;2023-02-28T04:07:28;96.43;;;34.20;;
31091;SDS011;67728;53.122;12.776;2023-02-28T04:09:00;96.63;;;34.27;;
31091;SDS011;67728;53.122;12.776;2023-02-28T04:10:34;96.20;;;34.33;;
31091;SDS011;67728;53.122;12.776;2023-02-28T04:12:06;101.90;;;34.77;;
31091;SDS011;67728;53.122;12.776;2023-02-28T04:13:38;99.67;;;34.57;;
31091;SDS011;67728;53.122;12.776;2023-02-28T04:15:09;96.87;;;34.33;;
31091;SDS011;67728;53.122;12.776;2023-02-28T04:16:42;103.87;;;35.30;;
31091;SDS011;67728;53.122;12.776;2023-02-28T04:18:13;100.20;;;34.07;;
31091;SDS011;67728;53.122;12.776;2023-02-28T04:19:45;98.50;;;34.10;;
31091;SDS011;67728;53.122;12.776;2023-02-28T04:21:16;94.20;;;33.43;;
31091;SDS011;67728;53.122;12.776;2023-02-28T04:22:51;92.03;;;32.97;;
31091;SDS011;67728;53.122;12.776;2023-02-28T04:24:23;97.67;;;33.77;;
31091;SDS011;67728;53.122;12.776;2023-02-28T04:25:57;98.10;;;33.80;;
31091;SDS011;67728;53.122;12.776;2023-02-28T04:27:29;98.53;;;33.80;;
31091;SDS011;67728;53.122;12.776;2023-02-28T04:29:01;101.77;;;34.27;;
31091;SDS011;67728;53.122;12.776;2023-02-28T04:30:34;98.87;;;33.83;;
31091;SDS011;67728;53.122;12.776;2023-02-28T04:32:06;102.07;;;34.33;;
31091;SDS011;67728;53.122;12.776;2023-02-28T04:33:37;104.47;;;34.63;;
31091;SDS011;67728;53.122;12.776;2023-02-28T04:35:09;102.57;;;34.60;;
31091;SDS011;67728;53.122;12.776;2023-02-28T04:36:40;105.70;;;34.83;;
31091;SDS011;67728;53.122;12.776;2023-02-28T04:38:12;100.83;;;34.17;;
31091;SDS011;67728;53.122;12.776;2023-02-28T04:39:44;104.50;;;34.63;;
31091;SDS011;67728;53.122;12.776;2023-02-28T04:41:17;105.27;;;34.57;;
31091;SDS011;67728;53.122;12.776;2023-02-28T04:42:49;108.60;;;34.97;;
31091;SDS011;67728;53.122;12.776;2023-02-28T04:44:21;108.90;;;35.03;;
31091;SDS011;67728;53.122;12.776;2023-02-28T04:45:53;102.77;;;34.33;;
31091;SDS011;67728;53.122;12.776;2023-02-28T04:47:26;105.23;;;34.70;;
31091;SDS011;67728;53.122;12.776;2023-02-28T04:48:58;104.63;;;34.70;;
31091;SDS011;67728;53.122;12.776;2023-02-28T04:50:30;103.70;;;34.47;;
31091;SDS011;67728;53.122;12.776;2023-02-28T04:52:01;107.93;;;35.10;;
31091;SDS011;67728;53.122;12.776;2023-02-28T04:53:33;102.67;;;34.53;;
31091;SDS011;67728;53.122;12.776;2023-02-28T04:55:05;106.77;;;34.93;;
31091;SDS011;67728;53.122;12.776;2023-02-28T04:56:38;102.33;;;34.40;;
31091;SDS011;67728;53.122;12.776;2023-02-28T04:58:10;98.97;;;33.83;;
31091;SDS011;67728;53.122;12.776;2023-02-28T04:59:41;101.57;;;34.33;;
31091;SDS011;67728;53.122;12.776;2023-02-28T05:01:16;101.10;;;34.10;;
31091;SDS011;67728;53.122;12.776;2023-02-28T05:02:50;114.30;;;35.90;;
31091;SDS011;67728;53.122;12.776;2023-02-28T05:04:22;104.47;;;34.50;;
31091;SDS011;67728;53.122;12.776;2023-02-28T05:05:53;103.20;;;34.37;;
31091;SDS011;67728;53.122;12.776;2023-02-28T05:07:25;99.13;;;33.90;;
31091;SDS011;67728;53.122;12.776;2023-02-28T05:08:56;103.70;;;34.17;;
31091;SDS011;67728;53.122;12.776;2023-02-28T05:10:28;113.00;;;35.77;;
31091;SDS011;67728;53.122;12.776;2023-02-28T05:12:01;104.70;;;34.67;;
31091;SDS011;67728;53.122;12.776;2023-02-28T05:13:33;100.87;;;34.00;;
31091;SDS011;67728;53.122;12.776;2023-02-28T05:15:05;107.57;;;34.87;;
31091;SDS011;67728;53.122;12.776;2023-02-28T05:16:37;103.37;;;34.53;;
31091;SDS011;67728;53.122;12.776;2023-02-28T05:18:09;107.70;;;34.90;;
31091;SDS011;67728;53.122;12.776;2023-02-28T05:19:40;109.23;;;35.37;;
31091;SDS011;67728;53.122;12.776;2023-02-28T05:21:22;105.40;;;34.63;;
31091;SDS011;67728;53.122;12.776;2023-02-28T05:22:55;108.20;;;34.83;;
31091;SDS011;67728;53.122;12.776;2023-02-28T05:24:29;104.60;;;34.33;;
31091;SDS011;67728;53.122;12.776;2023-02-28T05:26:00;108.57;;;34.80;;
31091;SDS011;67728;53.122;12.776;2023-02-28T05:27:34;111.07;;;35.23;;
31091;SDS011;67728;53.122;12.776;2023-02-28T05:29:06;111.50;;;35.30;;
31091;SDS011;67728;53.122;12.776;2023-02-28T05:30:37;104.47;;;34.57;;
31091;SDS011;67728;53.122;12.776;2023-02-28T05:32:09;110.30;;;35.27;;
31091;SDS011;67728;53.122;12.776;2023-02-28T05:33:41;115.77;;;35.97;;
31091;SDS011;67728;53.122;12.776;2023-02-28T05:35:12;109.57;;;35.13;;
31091;SDS011;67728;53.122;12.776;2023-02-28T05:36:43;106.67;;;34.90;;
31091;SDS011;67728;53.122;12.776;2023-02-28T05:38:15;101.83;;;34.47;;
31091;SDS011;67728;53.122;12.776;2023-02-28T05:39:47;105.63;;;34.73;;
31091;SDS011;67728;53.122;12.776;2023-02-28T05:41:19;100.87;;;34.17;;
31091;SDS011;67728;53.122;12.776;2023-02-28T05:42:52;96.90;;;33.67;;
31091;SDS011;67728;53.122;12.776;2023-02-28T05:44:24;119.40;;;36.37;;
31091;SDS011;67728;53.122;12.776;2023-02-28T05:45:55;96.47;;;33.53;;
31091;SDS011;67728;53.122;12.776;2023-02-28T05:47:27;101.07;;;33.87;;
31091;SDS011;67728;53.122;12.776;2023-02-28T05:48:59;97.60;;;33.57;;
31091;SDS011;67728;53.122;12.776;2023-02-28T05:50:31;99.67;;;34.13;;
31091;SDS011;67728;53.122;12.776;2023-02-28T05:52:02;90.27;;;32.60;;
31091;SDS011;67728;53.122;12.776;2023-02-28T05:53:34;97.33;;;33.43;;
31091;SDS011;67728;53.122;12.776;2023-02-28T05:55:06;95.13;;;33.30;;
31091;SDS011;67728;53.122;12.776;2023-02-28T05:56:39;102.57;;;34.30;;
31091;SDS011;67728;53.122;12.776;2023-02-28T05:58:15;100.13;;;33.83;;
31091;SDS011;67728;53.122;12.776;2023-02-28T05:59:46;98.00;;;33.67;;
31091;SDS011;67728;53.122;12.776;2023-02-28T06:01:19;101.50;;;33.97;;
31091;SDS011;67728;53.122;12.776;2023-02-28T06:02:53;111.27;;;35.10;;
31091;SDS011;67728;53.122;12.776;2023-02-28T06:04:26;115.10;;;35.87;;
31091;SDS011;67728;53.122;12.776;2023-02-28T06:05:57;105.57;;;34.47;;
31091;SDS011;67728;53.122;12.776;2023-02-28T06:07:29;98.83;;;33.57;;
31091;SDS011;67728;53.122;12.776;2023-02-28T06:09:01;98.10;;;33.60;;
31091;SDS011;67728;53.122;12.776;2023-02-28T06:10:33;96.57;;;33.60;;
31091;SDS011;67728;53.122;12.776;2023-02-28T06:12:05;93.37;;;33.33;;
31091;SDS011;67728;53.122;12.776;2023-02-28T06:13:41;99.67;;;33.97;;
31091;SDS011;67728;53.122;12.776;2023-02-28T06:15:13;101.23;;;33.93;;
31091;SDS011;67728;53.122;12.776;2023-02-28T06:16:46;104.33;;;34.33;;
31091;SDS011;67728;53.122;12.776;2023-02-28T06:18:18;102.07;;;34.13;;
31091;SDS011;67728;53.122;12.776;2023-02-28T06:19:50;104.03;;;34.37;;
31091;SDS011;67728;53.122;12.776;2023-02-28T06:21:21;100.10;;;33.90;;
31091;SDS011;67728;53.122;12.776;2023-02-28T06:22:53;96.53;;;33.50;;
31091;SDS011;67728;53.122;12.776;2023-02-28T06:24:26;103.57;;;34.37;;
31091;SDS011;67728;53.122;12.776;2023-02-28T06:25:59;102.00;;;34.10;;
31091;SDS011;67728;53.122;12.776;2023-02-28T06:27:30;101.87;;;34.10;;
31091;SDS011;67728;53.122;12.776;2023-02-28T06:29:04;101.17;;;34.20;;
31091;SDS011;67728;53.122;12.776;2023-02-28T06:30:36;100.57;;;34.33;;
31091;SDS011;67728;53.122;12.776;2023-02-28T06:32:08;101.67;;;34.13;;
31091;SDS011;67728;53.122;12.776;2023-02-28T06:33:39;105.83;;;34.83;;
31091;SDS011;67728;53.122;12.776;2023-02-28T06:35:12;113.43;;;35.57;;
31091;SDS011;67728;53.122;12.776;2023-02-28T06:36:44;111.67;;;35.80;;
31091;SDS011;67728;53.122;12.776;2023-02-28T06:38:15;108.57;;;35.10;;
31091;SDS011;67728;53.122;12.776;2023-02-28T06:39:48;105.33;;;34.53;;
31091;SDS011;67728;53.122;12.776;2023-02-28T06:41:20;104.97;;;34.57;;
31091;SDS011;67728;53.122;12.776;2023-02-28T06:42:52;106.43;;;34.60;;
31091;SDS011;67728;53.122;12.776;2023-02-28T06:44:25;112.73;;;35.63;;
31091;SDS011;67728;53.122;12.776;2023-02-28T06:45:56;108.87;;;35.03;;
31091;SDS011;67728;53.122;12.776;2023-02-28T06:47:30;112.47;;;35.30;;
31091;SDS011;67728;53.122;12.776;2023-02-28T06:49:02;119.17;;;36.37;;
31091;SDS011;67728;53.122;12.776;2023-02-28T06:50:33;119.50;;;36.40;;
31091;SDS011;67728;53.122;12.776;2023-02-28T06:52:05;116.10;;;35.97;;
31091;SDS011;67728;53.122;12.776;2023-02-28T06:53:37;118.37;;;36.37;;
31091;SDS011;67728;53.122;12.776;2023-02-28T06:55:09;127.03;;;37.60;;
31091;SDS011;67728;53.122;12.776;2023-02-28T06:56:40;118.10;;;36.17;;
31091;SDS011;67728;53.122;12.776;2023-02-28T06:58:12;120.47;;;36.63;;
31091;SDS011;67728;53.122;12.776;2023-02-28T06:59:50;120.53;;;36.70;;
31091;SDS011;67728;53.122;12.776;2023-02-28T07:01:21;129.83;;;37.63;;
31091;SDS011;67728;53.122;12.776;2023-02-28T07:02:54;131.97;;;37.83;;
31091;SDS011;67728;53.122;12.776;2023-02-28T07:04:25;128.87;;;37.70;;
31091;SDS011;67728;53.122;12.776;2023-02-28T07:05:57;135.80;;;38.60;;
31091;SDS011;67728;53.122;12.776;2023-02-28T07:07:29;130.10;;;37.93;;
31091;SDS011;67728;53.122;12.776;2023-02-28T07:09:02;138.17;;;39.07;;
31091;SDS011;67728;53.122;12.776;2023-02-28T07:10:36;127.87;;;37.60;;
31091;SDS011;67728;53.122;12.776;2023-02-28T07:12:08;122.70;;;37.17;;
31091;SDS011;67728;53.122;12.776;2023-02-28T07:13:40;123.27;;;37.20;;
31091;SDS011;67728;53.122;12.776;2023-02-28T07:15:13;123.13;;;37.07;;
31091;SDS011;67728;53.122;12.776;2023-02-28T07:16:45;119.27;;;36.73;;
31091;SDS011;67728;53.122;12.776;2023-02-28T07:18:16;117.07;;;36.67;;
31091;SDS011;67728;53.122;12.776;2023-02-28T07:19:49;109.13;;;35.57;;
31091;SDS011;67728;53.122;12.776;2023-02-28T07:21:21;108.40;;;35.37;;
31091;SDS011;67728;53.122;12.776;2023-02-28T07:22:53;103.93;;;34.67;;
31091;SDS011;67728;53.122;12.776;2023-02-28T07:24:26;103.70;;;34.77;;
31091;SDS011;67728;53.122;12.776;2023-02-28T07:25:59;98.57;;;34.27;;
31091;SDS011;67728;53.122;12.776;2023-02-28T07:27:30;93.20;;;33.37;;
31091;SDS011;67728;53.122;12.776;2023-02-28T07:29:02;94.47;;;33.73;;
31091;SDS011;67728;53.122;12.776;2023-02-28T07:30:35;94.83;;;33.73;;
31091;SDS011;67728;53.122;12.776;2023-02-28T07:32:07;100.17;;;34.70;;
31091;SDS011;67728;53.122;12.776;2023-02-28T07:33:39;92.87;;;33.63;;
31091;SDS011;67728;53.122;12.776;2023-02-28T07:35:11;94.10;;;33.77;;
31091;SDS011;67728;53.122;12.776;2023-02-28T07:36:43;95.87;;;33.73;;
31091;SDS011;67728;53.122;12.776;2023-02-28T07:38:15;95.20;;;33.70;;
31091;SDS011;67728;53.122;12.776;2023-02-28T07:39:47;89.90;;;33.33;;
31091;SDS011;67728;53.122;12.776;2023-02-28T07:41:19;89.20;;;33.20;;
31091;SDS011;67728;53.122;12.776;2023-02-28T07:42:54;98.13;;;34.13;;
31091;SDS011;67728;53.122;12.776;2023-02-28T07:44:26;98.00;;;34.40;;
31091;SDS011;67728;53.122;12.776;2023-02-28T07:46:02;104.80;;;35.37;;
31091;SDS011;67728;53.122;12.776;2023-02-28T07:47:35;101.93;;;35.10;;
31091;SDS011;67728;53.122;12.776;2023-02-28T07:49:06;101.30;;;34.97;;
31091;SDS011;67728;53.122;12.776;2023-02-28T07:50:38;103.63;;;35.63;;
31091;SDS011;67728;53.122;12.776;2023-02-28T07:52:09;112.37;;;36.87;;
31091;SDS011;67728;53.122;12.776;2023-02-28T07:53:41;103.60;;;35.67;;
31091;SDS011;67728;53.122;12.776;2023-02-28T07:55:13;102.97;;;35.43;;
31091;SDS011;67728;53.122;12.776;2023-02-28T07:56:46;106.37;;;35.73;;
31091;SDS011;67728;53.122;12.776;2023-02-28T07:58:18;114.83;;;37.20;;
31091;SDS011;67728;53.122;12.776;2023-02-28T07:59:49;106.63;;;36.00;;
31091;SDS011;67728;53.122;12.776;2023-02-28T08:01:22;107.93;;;36.27;;
31091;SDS011;67728;53.122;12.776;2023-02-28T08:02:54;113.07;;;36.90;;
31091;SDS011;67728;53.122;12.776;2023-02-28T08:04:25;127.83;;;38.90;;
31091;SDS011;67728;53.122;12.776;2023-02-28T08:05:57;136.27;;;39.30;;
31091;SDS011;67728;53.122;12.776;2023-02-28T08:07:29;143.50;;;40.43;;
31091;SDS011;67728;53.122;12.776;2023-02-28T08:09:00;143.67;;;40.37;;
31091;SDS011;67728;53.122;12.776;2023-02-28T08:10:32;143.97;;;40.57;;
31091;SDS011;67728;53.122;12.776;2023-02-28T08:12:04;141.17;;;40.13;;
31091;SDS011;67728;53.122;12.776;2023-02-28T08:13:36;138.03;;;39.90;;
31091;SDS011;67728;53.122;12.776;2023-02-28T08:15:08;141.93;;;40.37;;
31091;SDS011;67728;53.122;12.776;2023-02-28T08:16:41;157.97;;;42.83;;
31091;SDS011;67728;53.122;12.776;2023-02-28T08:18:13;145.63;;;40.70;;
31091;SDS011;67728;53.122;12.776;2023-02-28T08:19:45;149.70;;;41.27;;
31091;SDS011;67728;53.122;12.776;2023-02-28T08:21:17;157.40;;;42.40;;
31091;SDS011;67728;53.122;12.776;2023-02-28T08:22:50;165.60;;;43.40;;
31091;SDS011;67728;53.122;12.776;2023-02-28T08:24:21;156.43;;;42.37;;
31091;SDS011;67728;53.122;12.776;2023-02-28T08:25:54;166.67;;;43.00;;
31091;SDS011;67728;53.122;12.776;2023-02-28T08:27:26;177.07;;;44.37;;
31091;SDS011;67728;53.122;12.776;2023-02-28T08:28:57;201.30;;;47.33;;
31091;SDS011;67728;53.122;12.776;2023-02-28T08:30:29;194.10;;;46.67;;
31091;SDS011;67728;53.122;12.776;2023-02-28T08:32:02;203.57;;;47.50;;
31091;SDS011;67728;53.122;12.776;2023-02-28T08:33:34;198.30;;;46.87;;
31091;SDS011;67728;53.122;12.776;2023-02-28T08:35:07;196.30;;;46.70;;
31091;SDS011;67728;53.122;12.776;2023-02-28T08:36:40;197.47;;;47.50;;
31091;SDS011;67728;53.122;12.776;2023-02-28T08:38:12;199.80;;;47.13;;
31091;SDS011;67728;53.122;12.776;2023-02-28T08:39:44;211.60;;;48.33;;
31091;SDS011;67728;53.122;12.776;2023-02-28T08:41:15;221.30;;;48.57;;
31091;SDS011;67728;53.122;12.776;2023-02-28T08:42:47;215.97;;;48.40;;
31091;SDS011;67728;53.122;12.776;2023-02-28T08:44:19;216.93;;;48.93;;
31091;SDS011;67728;53.122;12.776;2023-02-28T08:45:51;211.30;;;48.60;;
31091;SDS011;67728;53.122;12.776;2023-02-28T08:47:24;219.47;;;48.83;;
31091;SDS011;67728;53.122;12.776;2023-02-28T08:48:56;240.30;;;49.43;;
31091;SDS011;67728;53.122;12.776;2023-02-28T08:50:30;256.90;;;51.17;;
31091;SDS011;67728;53.122;12.776;2023-02-28T08:52:01;233.73;;;49.73;;
31091;SDS011;67728;53.122;12.776;2023-02-28T08:53:33;231.60;;;49.77;;
31091;SDS011;67728;53.122;12.776;2023-02-28T08:55:05;227.33;;;49.77;;
31091;SDS011;67728;53.122;12.776;2023-02-28T08:56:37;230.17;;;49.60;;
31091;SDS011;67728;53.122;12.776;2023-02-28T08:58:09;240.53;;;50.10;;
31091;SDS011;67728;53.122;12.776;2023-02-28T08:59:41;243.10;;;50.23;;
31091;SDS011;67728;53.122;12.776;2023-02-28T09:01:13;214.60;;;49.00;;
31091;SDS011;67728;53.122;12.776;2023-02-28T09:02:48;224.63;;;50.72;;